createdAt,value
2024-05-09T00:02:03.375Z,4.80
2024-05-09T00:04:36.053Z,6.80
2024-05-09T00:07:08.300Z,7.90
2024-05-09T00:09:40.545Z,5.00
2024-05-09T00:12:12.789Z,6.60
2024-05-09T00:14:45.181Z,6.20
2024-05-09T00:17:17.881Z,7.00
2024-05-09T00:19:50.243Z,9.20
2024-05-09T00:22:22.734Z,5.00
2024-05-09T00:24:54.809Z,6.40
2024-05-09T00:27:27.173Z,6.80
2024-05-09T00:29:59.369Z,8.00
2024-05-09T00:32:31.686Z,5.80
2024-05-09T00:35:04.039Z,6.50
2024-05-09T00:37:37.164Z,5.90
2024-05-09T00:40:18.316Z,6.30
2024-05-09T00:42:55.238Z,8.60
2024-05-09T00:45:27.528Z,4.60
2024-05-09T00:48:01.189Z,5.60
2024-05-09T00:50:36.945Z,6.10
2024-05-09T00:53:12.160Z,6.70
2024-05-09T00:55:45.562Z,5.40
2024-05-09T00:58:21.839Z,6.70
2024-05-09T01:00:55.244Z,6.70
2024-05-09T01:03:28.287Z,5.80
2024-05-09T01:06:00.585Z,4.40
2024-05-09T01:08:33.849Z,8.10
2024-05-09T01:11:08.027Z,7.60
2024-05-09T01:13:40.909Z,4.40
2024-05-09T01:16:14.579Z,5.60
2024-05-09T01:18:46.795Z,7.60
2024-05-09T01:21:19.184Z,7.00
2024-05-09T01:23:51.747Z,6.80
2024-05-09T01:26:24.221Z,8.70
2024-05-09T01:28:56.502Z,6.80
2024-05-09T01:31:29.510Z,6.60
2024-05-09T01:34:02.170Z,8.40
2024-05-09T01:36:35.004Z,7.10
2024-05-09T01:39:07.332Z,6.40
2024-05-09T01:41:39.622Z,5.40
2024-05-09T01:44:12.080Z,6.40
2024-05-09T01:46:44.376Z,8.90
2024-05-09T01:49:16.930Z,9.00
2024-05-09T01:51:49.182Z,6.60
2024-05-09T01:54:21.780Z,6.40
2024-05-09T01:56:53.999Z,7.40
2024-05-09T01:59:26.461Z,7.80
2024-05-09T02:01:58.938Z,7.50
2024-05-09T02:04:32.598Z,7.90
2024-05-09T02:07:05.104Z,8.10
2024-05-09T02:09:37.537Z,7.70
2024-05-09T02:12:11.064Z,7.50
2024-05-09T02:14:43.546Z,8.00
2024-05-09T02:17:15.786Z,10.70
2024-05-09T02:19:48.199Z,8.40
2024-05-09T02:22:20.526Z,9.90
2024-05-09T02:24:53.053Z,10.80
2024-05-09T02:27:25.658Z,12.70
2024-05-09T02:29:58.411Z,9.10
2024-05-09T02:32:30.992Z,16.10
2024-05-09T02:35:03.654Z,11.20
2024-05-09T02:37:36.013Z,12.60
2024-05-09T02:40:14.610Z,10.80
2024-05-09T02:42:50.444Z,10.00
2024-05-09T02:45:24.812Z,8.60
2024-05-09T02:47:57.667Z,10.60
2024-05-09T02:50:37.167Z,9.60
2024-05-09T02:53:12.355Z,9.60
2024-05-09T02:55:46.109Z,14.10
2024-05-09T02:58:18.782Z,9.20
2024-05-09T03:00:51.312Z,7.90
2024-05-09T03:03:24.264Z,8.90
2024-05-09T03:05:57.026Z,9.20
2024-05-09T03:08:29.728Z,8.20
2024-05-09T03:11:01.988Z,11.10
2024-05-09T03:13:34.418Z,9.50
2024-05-09T03:16:07.309Z,9.00
2024-05-09T03:18:39.769Z,9.50
2024-05-09T03:21:12.824Z,11.60
2024-05-09T03:23:45.950Z,10.30
2024-05-09T03:26:19.533Z,8.90
2024-05-09T03:28:51.881Z,8.50
2024-05-09T03:31:24.109Z,9.30
2024-05-09T03:33:56.455Z,8.60
2024-05-09T03:36:28.971Z,9.70
2024-05-09T03:39:01.210Z,8.00
2024-05-09T03:41:33.789Z,11.80
2024-05-09T03:44:07.151Z,7.90
2024-05-09T03:46:43.186Z,7.90
2024-05-09T03:49:15.734Z,7.00
2024-05-09T03:51:49.493Z,7.30
2024-05-09T03:54:22.541Z,8.90
2024-05-09T03:56:54.718Z,8.80
2024-05-09T03:59:27.424Z,10.40
2024-05-09T04:01:59.998Z,9.30
2024-05-09T04:04:32.695Z,8.70
2024-05-09T04:07:06.188Z,6.10
2024-05-09T04:09:38.493Z,6.20
2024-05-09T04:12:11.311Z,9.60
2024-05-09T04:14:44.198Z,7.80
2024-05-09T04:17:16.694Z,5.80
2024-05-09T04:19:48.913Z,7.90
2024-05-09T04:22:21.472Z,7.60
2024-05-09T04:24:54.072Z,5.60
2024-05-09T04:27:26.395Z,10.00
2024-05-09T04:29:59.042Z,7.80
2024-05-09T04:32:31.614Z,9.60
2024-05-09T04:35:04.422Z,8.90
2024-05-09T04:37:37.666Z,6.20
2024-05-09T04:40:21.009Z,6.00
2024-05-09T04:43:00.859Z,11.80
2024-05-09T04:45:33.193Z,7.60
2024-05-09T04:48:08.992Z,9.40
2024-05-09T04:50:41.819Z,6.40
2024-05-09T04:53:18.150Z,7.20
2024-05-09T04:55:51.501Z,8.80
2024-05-09T04:58:23.879Z,8.40
2024-05-09T05:00:56.209Z,6.20
2024-05-09T05:03:28.875Z,10.70
2024-05-09T05:06:01.327Z,7.80
2024-05-09T05:08:34.567Z,9.00
2024-05-09T05:11:08.071Z,9.70
2024-05-09T05:13:41.658Z,6.10
2024-05-09T05:16:14.401Z,7.80
2024-05-09T05:18:46.827Z,11.10
2024-05-09T05:21:19.783Z,8.10
2024-05-09T05:23:52.266Z,6.30
2024-05-09T05:26:24.731Z,6.50
2024-05-09T05:28:57.370Z,6.30
2024-05-09T05:31:30.262Z,8.40
2024-05-09T05:34:02.615Z,6.90
2024-05-09T05:36:35.341Z,6.20
2024-05-09T05:39:08.607Z,6.50
2024-05-09T05:41:41.588Z,6.00
2024-05-09T05:44:15.939Z,7.20
2024-05-09T05:46:48.614Z,5.50
2024-05-09T05:49:21.598Z,8.90
2024-05-09T05:51:54.513Z,4.60
2024-05-09T05:54:27.198Z,7.90
2024-05-09T05:57:00.678Z,4.70
2024-05-09T05:59:33.209Z,5.40
2024-05-09T06:02:05.829Z,6.30
2024-05-09T06:04:39.158Z,5.70
2024-05-09T06:07:11.838Z,6.80
2024-05-09T06:09:46.058Z,6.10
2024-05-09T06:12:20.029Z,5.80
2024-05-09T06:14:52.378Z,4.60
2024-05-09T06:17:24.881Z,5.50
2024-05-09T06:19:57.997Z,4.70
2024-05-09T06:22:30.390Z,9.40
2024-05-09T06:25:03.090Z,10.30
2024-05-09T06:27:35.863Z,5.60
2024-05-09T06:30:21.137Z,9.00
2024-05-09T06:32:59.577Z,6.90
2024-05-09T06:35:33.655Z,6.20
2024-05-09T06:38:09.252Z,6.30
2024-05-09T06:40:44.080Z,5.80
2024-05-09T06:43:19.395Z,6.50
2024-05-09T06:45:53.680Z,5.30
2024-05-09T06:48:26.340Z,5.70
2024-05-09T06:50:58.930Z,7.40
2024-05-09T06:53:31.504Z,6.30
2024-05-09T06:56:04.233Z,9.00
2024-05-09T06:58:36.749Z,8.20
2024-05-09T07:01:11.060Z,5.80
2024-05-09T07:03:44.195Z,8.30
2024-05-09T07:06:17.880Z,11.20
2024-05-09T07:08:52.393Z,7.50
2024-05-09T07:13:55.938Z,11.20
2024-05-09T07:16:28.616Z,9.90
2024-05-09T07:19:01.319Z,7.20
2024-05-09T07:21:33.811Z,5.10
2024-05-09T07:24:06.827Z,3.90
2024-05-09T07:26:39.579Z,5.10
2024-05-09T07:29:12.246Z,3.60
2024-05-09T07:31:45.058Z,3.50
2024-05-09T07:34:17.831Z,3.90
2024-05-09T07:36:51.045Z,4.80
2024-05-09T07:39:23.625Z,3.20
2024-05-09T07:41:56.453Z,2.70
2024-05-09T07:44:30.710Z,2.90
2024-05-09T07:48:14.408Z,5.00
2024-05-09T07:51:33.069Z,5.20
2024-05-09T07:53:35.368Z,2.70
2024-05-09T07:55:44.380Z,3.50
2024-05-09T07:58:17.611Z,4.10
2024-05-09T08:00:50.418Z,4.20
2024-05-09T08:03:23.593Z,3.80
2024-05-09T08:05:57.013Z,3.40
2024-05-09T08:08:29.623Z,2.30
2024-05-09T08:11:03.505Z,3.20
2024-05-09T08:13:36.032Z,3.20
2024-05-09T08:16:09.946Z,4.60
2024-05-09T08:18:42.688Z,3.60
2024-05-09T08:21:15.508Z,2.80
2024-05-09T08:23:48.138Z,4.40
2024-05-09T08:26:20.908Z,3.40
2024-05-09T08:28:53.681Z,2.80
2024-05-09T08:31:26.409Z,4.50
2024-05-09T08:33:59.121Z,5.50
2024-05-09T08:36:31.663Z,4.10
2024-05-09T08:39:04.606Z,2.90
2024-05-09T08:41:42.848Z,8.50
2024-05-09T08:44:15.677Z,3.60
2024-05-09T08:46:52.624Z,5.50
2024-05-09T08:49:26.325Z,5.50
2024-05-09T08:51:59.047Z,5.10
2024-05-09T08:54:32.386Z,3.30
2024-05-09T08:57:07.497Z,4.50
2024-05-09T08:59:47.610Z,2.40
2024-05-09T09:02:23.496Z,2.90
2024-05-09T09:05:02.257Z,4.40
2024-05-09T09:07:36.212Z,3.60
2024-05-09T09:10:12.894Z,4.00
2024-05-09T09:12:58.043Z,2.80
2024-05-09T09:15:30.876Z,6.40
2024-05-09T09:18:04.354Z,3.70
2024-05-09T09:20:37.381Z,5.50
2024-05-09T09:23:10.829Z,4.00
2024-05-09T09:25:44.279Z,3.30
2024-05-09T09:28:17.119Z,2.80
2024-05-09T09:30:49.962Z,4.00
2024-05-09T09:33:25.336Z,2.60
2024-05-09T09:35:57.933Z,2.70
2024-05-09T09:38:33.128Z,4.60
2024-05-09T09:41:10.903Z,3.20
2024-05-09T09:43:44.485Z,5.30
2024-05-09T09:46:19.294Z,5.60
2024-05-09T09:48:52.702Z,4.20
2024-05-09T09:51:26.285Z,4.10
2024-05-09T09:54:00.252Z,2.80
2024-05-09T09:56:34.509Z,6.70
2024-05-09T09:59:08.226Z,4.10
2024-05-09T10:01:41.113Z,5.40
2024-05-09T10:04:17.042Z,5.10
2024-05-09T10:06:52.800Z,3.80
2024-05-09T10:09:26.097Z,4.20
2024-05-09T10:12:00.397Z,3.20
2024-05-09T10:14:40.939Z,5.30
2024-05-09T10:17:13.277Z,2.70
2024-05-09T10:19:46.278Z,4.90
2024-05-09T10:22:29.982Z,2.50
2024-05-09T10:25:08.439Z,4.40
2024-05-09T10:27:41.325Z,3.70
2024-05-09T10:30:33.666Z,2.90
2024-05-09T10:33:13.020Z,4.60
2024-05-09T10:35:54.045Z,4.00
2024-05-09T10:38:26.762Z,3.60
2024-05-09T10:41:01.484Z,4.20
2024-05-09T10:43:34.853Z,4.10
2024-05-09T10:46:08.947Z,3.80
2024-05-09T10:48:43.869Z,4.30
2024-05-09T10:51:17.896Z,2.90
2024-05-09T10:53:52.690Z,3.40
2024-05-09T10:56:25.110Z,3.10
2024-05-09T10:58:57.626Z,3.90
2024-05-09T11:01:32.648Z,4.00
2024-05-09T11:04:05.682Z,4.30
2024-05-09T11:06:42.488Z,3.40
2024-05-09T11:09:16.433Z,6.00
2024-05-09T11:11:49.439Z,4.10
2024-05-09T11:14:21.994Z,3.60
2024-05-09T11:17:05.873Z,5.10
2024-05-09T11:19:41.125Z,3.70
2024-05-09T11:22:17.981Z,4.50
2024-05-09T11:24:54.903Z,3.90
2024-05-09T11:27:27.759Z,3.80
2024-05-09T11:30:01.459Z,4.90
2024-05-09T11:32:34.198Z,3.50
2024-05-09T11:35:07.846Z,6.20
2024-05-09T11:37:41.342Z,3.80
2024-05-09T11:40:21.357Z,3.00
2024-05-09T11:42:58.106Z,3.60
2024-05-09T11:45:32.047Z,4.60
2024-05-09T11:48:05.012Z,3.40
2024-05-09T11:50:37.603Z,3.00
2024-05-09T11:53:10.571Z,3.40
2024-05-09T11:55:43.611Z,5.90
2024-05-09T11:58:17.903Z,3.90
2024-05-09T12:00:51.266Z,3.20
2024-05-09T12:03:25.264Z,3.20
2024-05-09T12:05:58.367Z,2.40
2024-05-09T12:08:31.466Z,5.30
2024-05-09T12:11:04.468Z,4.00
2024-05-09T12:13:37.117Z,3.90
2024-05-09T12:16:10.516Z,3.10
2024-05-09T12:18:43.323Z,6.00
2024-05-09T12:21:17.568Z,4.00
2024-05-09T12:23:50.669Z,3.90
2024-05-09T12:26:23.917Z,5.60
2024-05-09T12:28:56.629Z,3.70
2024-05-09T12:31:29.248Z,3.50
2024-05-09T12:34:02.359Z,4.40
2024-05-09T12:36:35.268Z,4.50
2024-05-09T12:39:09.227Z,5.20
2024-05-09T12:41:41.913Z,3.30
2024-05-09T12:44:14.477Z,2.00
2024-05-09T12:46:47.172Z,3.90
2024-05-09T12:49:20.365Z,3.20
2024-05-09T12:51:53.205Z,3.90
2024-05-09T12:54:25.672Z,4.40
2024-05-09T12:56:59.590Z,2.70
2024-05-09T12:59:32.006Z,4.00
2024-05-09T13:02:05.051Z,4.40
2024-05-09T13:04:37.900Z,2.60
2024-05-09T13:07:11.384Z,2.80
2024-05-09T13:09:44.155Z,2.90
2024-05-09T13:12:16.685Z,2.90
2024-05-09T13:14:49.107Z,4.30
2024-05-09T13:17:21.937Z,3.30
2024-05-09T13:19:54.441Z,3.50
2024-05-09T13:22:27.476Z,4.60
2024-05-09T13:25:00.268Z,4.60
2024-05-09T13:27:33.234Z,4.50
2024-05-09T13:30:12.028Z,2.90
2024-05-09T13:32:53.571Z,3.80
2024-05-09T13:35:26.822Z,2.80
2024-05-09T13:38:02.297Z,3.60
2024-05-09T13:40:36.410Z,4.10
2024-05-09T13:43:09.640Z,3.70
2024-05-09T13:45:42.807Z,3.20
2024-05-09T13:48:15.774Z,6.40
2024-05-09T13:50:48.727Z,4.90
2024-05-09T13:53:21.304Z,3.30
2024-05-09T13:55:54.177Z,5.10
2024-05-09T13:58:26.730Z,3.00
2024-05-09T14:00:59.937Z,4.50
2024-05-09T14:03:33.195Z,4.70
2024-05-09T14:06:08.745Z,2.30
2024-05-09T14:08:43.456Z,2.20
2024-05-09T14:11:16.166Z,5.70
2024-05-09T14:17:38.238Z,4.60
2024-05-09T14:20:14.188Z,3.70
2024-05-09T14:22:49.081Z,2.60
2024-05-09T14:25:22.620Z,3.90
2024-05-09T14:27:57.587Z,2.50
2024-05-09T14:30:36.572Z,4.40
2024-05-09T14:33:11.567Z,4.50
2024-05-09T14:35:44.737Z,3.70
2024-05-09T14:38:17.485Z,2.40
2024-05-09T14:40:50.883Z,3.30
2024-05-09T14:43:23.679Z,3.30
2024-05-09T14:45:57.423Z,2.80
2024-05-09T14:48:30.807Z,2.50
2024-05-09T14:51:09.478Z,4.80
2024-05-09T14:53:45.676Z,3.00
2024-05-09T14:56:19.389Z,3.90
2024-05-09T14:58:51.997Z,3.70
2024-05-09T15:01:28.272Z,2.60
2024-05-09T15:04:06.611Z,6.60
2024-05-09T15:06:42.771Z,3.00
2024-05-09T15:09:16.167Z,3.40
2024-05-09T15:11:50.236Z,5.10
2024-05-09T15:14:23.780Z,3.40
2024-05-09T15:16:57.271Z,3.10
2024-05-09T15:19:31.031Z,3.00
2024-05-09T15:22:04.195Z,3.90
2024-05-09T15:24:38.053Z,3.60
2024-05-09T15:27:12.741Z,4.20
2024-05-09T15:29:46.529Z,9.40
2024-05-09T15:32:19.610Z,3.60
2024-05-09T15:34:53.402Z,5.80
2024-05-09T15:37:26.394Z,4.80
2024-05-09T15:40:00.212Z,4.10
2024-05-09T15:42:33.093Z,6.50
2024-05-09T15:45:07.835Z,2.90
2024-05-09T15:47:41.029Z,3.10
2024-05-09T15:50:20.579Z,4.00
2024-05-09T15:53:01.523Z,3.00
2024-05-09T15:55:34.615Z,3.90
2024-05-09T15:58:08.588Z,3.40
2024-05-09T16:00:43.525Z,2.80
2024-05-09T16:03:21.357Z,2.70
2024-05-09T16:05:55.758Z,5.10
2024-05-09T16:08:29.229Z,3.90
2024-05-09T16:11:02.242Z,3.40
2024-05-09T16:13:36.056Z,4.90
2024-05-09T16:16:10.806Z,5.60
2024-05-09T16:18:46.680Z,4.20
2024-05-09T16:21:19.867Z,3.20
2024-05-09T16:23:52.549Z,4.50
2024-05-09T16:26:24.749Z,3.50
2024-05-09T16:28:57.214Z,4.10
2024-05-09T16:31:30.216Z,3.20
2024-05-09T16:34:05.910Z,3.60
2024-05-09T16:36:41.114Z,3.30
2024-05-09T16:39:14.196Z,3.00
2024-05-09T16:41:47.327Z,5.10
2024-05-09T16:44:20.258Z,3.10
2024-05-09T16:46:52.686Z,2.80
2024-05-09T16:49:26.874Z,3.30
2024-05-09T16:51:59.818Z,4.50
2024-05-09T16:54:34.679Z,3.10
2024-05-09T16:57:08.692Z,4.00
2024-05-09T16:59:41.343Z,4.00
2024-05-09T17:02:14.131Z,3.30
2024-05-09T17:04:47.205Z,3.50
2024-05-09T17:07:23.249Z,3.80
2024-05-09T17:09:55.808Z,3.50
2024-05-09T17:12:29.031Z,2.50
2024-05-09T17:15:01.672Z,2.50
2024-05-09T17:17:34.596Z,3.40
2024-05-09T17:20:15.589Z,4.60
2024-05-09T17:22:56.572Z,5.30
2024-05-09T17:25:29.268Z,6.70
2024-05-09T17:28:07.668Z,3.80
2024-05-09T17:30:42.803Z,3.30
2024-05-09T17:33:16.069Z,3.70
2024-05-09T17:35:50.840Z,7.40
2024-05-09T17:40:56.118Z,3.50
2024-05-09T17:43:29.622Z,3.40
2024-05-09T17:46:03.443Z,4.50
2024-05-09T17:48:36.507Z,3.80
2024-05-09T17:51:09.025Z,3.70
2024-05-09T17:53:41.882Z,9.00
2024-05-09T17:56:14.409Z,8.80
2024-05-09T17:58:49.021Z,5.00
2024-05-09T18:03:52.684Z,8.30
2024-05-09T18:06:25.102Z,4.20
2024-05-09T18:09:03.812Z,5.80
2024-05-09T18:11:37.584Z,3.40
2024-05-09T18:14:10.297Z,4.70
2024-05-09T18:16:43.100Z,3.80
2024-05-09T18:19:16.026Z,5.50
2024-05-09T18:21:49.565Z,8.40
2024-05-09T18:24:22.911Z,7.50
2024-05-09T18:26:57.536Z,8.10
2024-05-09T18:29:30.464Z,20.10
2024-05-09T18:32:03.991Z,46.30
2024-05-09T18:34:36.526Z,51.80
2024-05-09T18:37:10.758Z,69.60
2024-05-09T18:39:44.240Z,120.80
2024-05-09T18:42:17.762Z,141.70
2024-05-09T18:44:51.016Z,248.90
2024-05-09T18:47:25.620Z,324.00
2024-05-09T18:49:58.940Z,222.80
2024-05-09T18:52:32.063Z,160.30
2024-05-09T18:55:05.552Z,121.20
2024-05-09T18:57:41.466Z,72.00
2024-05-09T19:00:30.940Z,63.10
2024-05-09T19:03:15.142Z,34.00
2024-05-09T19:05:51.335Z,21.90
2024-05-09T19:08:26.011Z,14.20
2024-05-09T19:11:02.123Z,15.70
2024-05-09T19:13:36.559Z,12.10
2024-05-09T19:16:10.952Z,10.10
2024-05-09T19:18:47.167Z,9.30
2024-05-09T19:21:21.891Z,13.80
2024-05-09T19:23:56.903Z,10.70
2024-05-09T19:26:33.907Z,9.20
2024-05-09T19:29:10.401Z,12.70
2024-05-09T19:31:46.753Z,11.90
2024-05-09T19:34:23.882Z,8.80
2024-05-09T19:37:03.284Z,8.70
2024-05-09T19:39:38.938Z,12.50
2024-05-09T19:42:14.281Z,11.20
2024-05-09T19:47:21.112Z,9.60
2024-05-09T19:49:56.821Z,9.20
2024-05-09T19:52:32.254Z,8.90
2024-05-09T19:55:06.396Z,10.60
2024-05-09T19:57:46.067Z,8.30
2024-05-09T20:00:26.692Z,8.80
2024-05-09T20:03:07.943Z,9.60
2024-05-09T20:05:47.080Z,9.40
2024-05-09T20:08:23.718Z,10.50
2024-05-09T20:11:02.444Z,11.90
2024-05-09T20:13:35.787Z,11.70
2024-05-09T20:16:12.191Z,19.00
2024-05-09T20:18:48.531Z,17.60
2024-05-09T20:21:25.444Z,17.60
2024-05-09T20:24:01.568Z,20.50
2024-05-09T20:26:39.341Z,26.90
2024-05-09T20:29:13.608Z,27.90
2024-05-09T20:31:48.639Z,33.50
2024-05-09T20:34:22.822Z,39.70
2024-05-09T20:36:59.415Z,25.90
2024-05-09T20:39:39.260Z,38.10
2024-05-09T20:42:15.575Z,40.20
2024-05-09T20:44:48.629Z,47.00
2024-05-09T20:47:23.174Z,36.90
2024-05-09T20:49:57.732Z,44.70
2024-05-09T20:55:07.539Z,33.80
2024-05-09T20:57:41.162Z,29.10
2024-05-09T21:00:18.978Z,28.20
2024-05-09T21:02:56.493Z,23.00
2024-05-09T21:05:31.725Z,31.10
2024-05-09T21:08:05.869Z,26.00
2024-05-09T21:10:40.882Z,38.30
2024-05-09T21:13:14.204Z,34.80
2024-05-09T21:15:48.020Z,35.10
2024-05-09T21:18:21.060Z,23.20
2024-05-09T21:20:53.579Z,25.30
2024-05-09T21:23:26.445Z,20.90
2024-05-09T21:25:58.863Z,25.00
2024-05-09T21:28:31.511Z,38.80
2024-05-09T21:31:04.344Z,33.90
2024-05-09T21:33:37.340Z,33.70
2024-05-09T21:36:11.824Z,39.10
2024-05-09T21:38:44.557Z,43.30
2024-05-09T21:41:17.148Z,33.60
2024-05-09T21:43:49.554Z,35.70
2024-05-09T21:46:22.191Z,26.30
2024-05-09T21:48:54.998Z,39.90
2024-05-09T21:51:27.440Z,39.00
2024-05-09T21:54:00.312Z,37.50
2024-05-09T21:56:35.326Z,32.60
2024-05-09T21:59:07.648Z,35.00
2024-05-09T22:01:40.199Z,36.30
2024-05-09T22:04:12.761Z,33.70
2024-05-09T22:06:45.278Z,31.80
2024-05-09T22:09:17.689Z,27.20
2024-05-09T22:11:52.572Z,31.00
2024-05-09T22:14:25.864Z,34.80
2024-05-09T22:16:58.185Z,29.30
2024-05-09T22:19:30.702Z,33.90
2024-05-09T22:22:02.803Z,32.90
2024-05-09T22:24:35.044Z,33.50
2024-05-09T22:27:08.816Z,31.20
2024-05-09T22:29:41.169Z,29.40
2024-05-09T22:32:13.599Z,29.40
2024-05-09T22:34:46.145Z,34.60
2024-05-09T22:37:18.437Z,31.00
2024-05-09T22:39:50.906Z,32.20
2024-05-09T22:42:23.237Z,30.00
2024-05-09T22:44:55.658Z,28.00
2024-05-09T22:47:27.996Z,23.40
2024-05-09T22:50:00.605Z,24.20
2024-05-09T22:52:33.636Z,14.70
2024-05-09T22:55:07.875Z,18.30
2024-05-09T22:57:40.163Z,26.50
2024-05-09T23:00:16.100Z,28.50
2024-05-09T23:02:48.661Z,25.30
2024-05-09T23:05:22.045Z,21.70
2024-05-09T23:07:54.404Z,19.50
2024-05-09T23:10:32.474Z,18.00
2024-05-09T23:13:09.798Z,15.00
2024-05-09T23:15:43.510Z,20.60
2024-05-09T23:18:22.002Z,15.10
2024-05-09T23:20:54.698Z,15.90
2024-05-09T23:23:27.170Z,14.50
2024-05-09T23:25:59.385Z,13.50
2024-05-09T23:28:32.037Z,17.20
2024-05-09T23:31:04.173Z,18.30
2024-05-09T23:33:36.590Z,15.50
2024-05-09T23:36:10.214Z,14.30
2024-05-09T23:38:43.509Z,14.60
2024-05-09T23:41:15.642Z,14.90
2024-05-09T23:43:48.844Z,13.40
2024-05-09T23:46:21.359Z,13.30
2024-05-09T23:48:54.159Z,13.70
2024-05-09T23:51:26.467Z,13.40
2024-05-09T23:53:59.063Z,12.70
2024-05-09T23:56:31.926Z,14.10
2024-05-09T23:59:04.461Z,13.20
